createdAt,value
2019-06-10T00:02:41.423Z,14.53
2019-06-10T00:08:05.853Z,14.25
2019-06-10T00:13:31.530Z,7.12
2019-06-10T00:18:55.945Z,11.68
2019-06-10T00:24:21.302Z,6.78
2019-06-10T00:29:45.769Z,9.35
2019-06-10T00:35:12.155Z,12.98
2019-06-10T00:40:35.305Z,7.97
2019-06-10T00:46:00.708Z,8.90
2019-06-10T00:51:24.829Z,7.58
2019-06-10T00:56:48.414Z,9.45
2019-06-10T01:02:14.450Z,6.05
2019-06-10T01:07:41.218Z,9.08
2019-06-10T01:13:05.093Z,10.05
2019-06-10T01:18:35.619Z,8.08
2019-06-10T01:23:55.306Z,8.18
2019-06-10T01:29:21.089Z,9.83
2019-06-10T01:34:44.818Z,7.35
2019-06-10T01:40:13.122Z,6.53
2019-06-10T01:45:35.516Z,11.57
2019-06-10T01:51:01.843Z,9.78
2019-06-10T01:56:25.792Z,8.10
2019-06-10T02:02:04.152Z,8.80
2019-06-10T02:07:31.827Z,6.72
2019-06-10T02:12:56.360Z,6.58
2019-06-10T02:18:22.460Z,10.88
2019-06-10T02:23:47.069Z,8.38
2019-06-10T02:29:13.180Z,9.70
2019-06-10T02:34:45.997Z,8.85
2019-06-10T02:40:04.472Z,9.93
2019-06-10T02:45:33.681Z,9.78
2019-06-10T02:51:07.880Z,8.30
2019-06-10T02:56:36.206Z,9.55
2019-06-10T03:01:57.700Z,11.50
2019-06-10T03:07:26.779Z,10.30
2019-06-10T03:12:48.071Z,11.00
2019-06-10T03:18:12.913Z,7.40
2019-06-10T03:23:37.145Z,14.58
2019-06-10T03:29:02.669Z,7.25
2019-06-10T03:34:36.165Z,16.37
2019-06-10T03:39:54.874Z,10.75
2019-06-10T03:45:21.140Z,11.10
2019-06-10T03:50:45.755Z,13.43
2019-06-10T03:56:09.451Z,15.33
2019-06-10T04:01:35.231Z,17.67
2019-06-10T04:07:03.572Z,16.03
2019-06-10T04:12:27.527Z,18.92
2019-06-10T04:17:53.070Z,15.97
2019-06-10T04:23:17.736Z,17.47
2019-06-10T04:28:42.954Z,17.27
2019-06-10T04:34:06.966Z,19.57
2019-06-10T04:39:30.636Z,22.40
2019-06-10T04:44:55.258Z,19.10
2019-06-10T04:50:27.039Z,14.80
2019-06-10T04:55:45.227Z,14.87
2019-06-10T05:01:12.009Z,17.67
2019-06-10T05:06:35.652Z,22.37
2019-06-10T05:11:59.755Z,18.73
2019-06-10T05:17:26.128Z,18.90
2019-06-10T05:22:50.036Z,15.13
2019-06-10T05:28:13.971Z,15.23
2019-06-10T05:33:38.439Z,15.43
2019-06-10T05:39:03.201Z,13.88
2019-06-10T05:44:28.450Z,14.53
2019-06-10T05:49:53.045Z,20.20
2019-06-10T05:55:17.843Z,13.88
2019-06-10T06:00:42.894Z,14.03
2019-06-10T06:06:07.368Z,14.30
2019-06-10T06:11:34.023Z,19.02
2019-06-10T06:16:57.326Z,10.88
2019-06-10T06:22:22.195Z,13.40
2019-06-10T06:27:45.796Z,13.80
2019-06-10T06:33:09.726Z,11.68
2019-06-10T06:38:35.353Z,13.48
2019-06-10T06:43:59.074Z,10.38
2019-06-10T06:49:23.499Z,13.32
2019-06-10T06:54:47.096Z,12.23
2019-06-10T07:00:37.437Z,8.30
2019-06-10T07:05:41.052Z,9.50
2019-06-10T07:11:05.221Z,13.35
2019-06-10T07:16:31.909Z,10.93
2019-06-10T07:22:08.865Z,13.28
2019-06-10T07:27:22.628Z,9.65
2019-06-10T07:32:47.391Z,12.23
2019-06-10T07:38:12.442Z,10.32
2019-06-10T07:43:40.853Z,13.08
2019-06-10T07:49:03.386Z,10.72
2019-06-10T07:54:27.986Z,9.88
2019-06-10T07:59:52.748Z,13.78
2019-06-10T08:05:17.627Z,11.15
2019-06-10T08:10:44.854Z,10.20
2019-06-10T08:16:08.359Z,9.65
2019-06-10T08:21:32.708Z,9.18
2019-06-10T08:26:57.313Z,10.55
2019-06-10T08:32:24.247Z,14.10
2019-06-10T08:37:47.457Z,13.50
2019-06-10T08:43:13.392Z,12.75
2019-06-10T08:48:37.558Z,11.75
2019-06-10T08:54:02.551Z,12.15
2019-06-10T08:59:27.579Z,9.08
2019-06-10T09:04:53.598Z,10.72
2019-06-10T09:10:17.786Z,8.30
2019-06-10T09:15:44.997Z,12.88
2019-06-10T09:21:07.259Z,12.30
2019-06-10T09:26:33.690Z,12.88
2019-06-10T09:31:57.315Z,12.33
2019-06-10T09:37:23.334Z,10.75
2019-06-10T09:42:49.700Z,12.35
2019-06-10T09:48:13.608Z,11.45
2019-06-10T09:53:42.776Z,12.18
2019-06-10T09:59:04.037Z,13.50
2019-06-10T10:04:28.638Z,11.75
2019-06-10T10:09:57.003Z,12.93
2019-06-10T10:15:27.473Z,15.03
2019-06-10T10:20:48.072Z,10.60
2019-06-10T10:26:13.196Z,13.40
2019-06-10T10:31:36.173Z,12.70
2019-06-10T10:37:02.743Z,13.62
2019-06-10T10:42:39.146Z,12.03
2019-06-10T10:47:56.389Z,14.35
2019-06-10T10:53:18.157Z,11.30
2019-06-10T10:58:45.341Z,12.90
2019-06-10T11:04:08.517Z,14.85
2019-06-10T11:09:33.212Z,16.77
2019-06-10T11:15:01.912Z,14.05
2019-06-10T11:20:23.776Z,16.02
2019-06-10T11:25:48.259Z,12.63
2019-06-10T11:31:13.866Z,17.48
2019-06-10T11:36:38.580Z,15.08
2019-06-10T11:42:03.989Z,13.72
2019-06-10T11:47:28.701Z,19.37
2019-06-10T11:52:55.461Z,15.55
2019-06-10T11:58:17.893Z,14.47
2019-06-10T12:03:43.417Z,16.25
2019-06-10T12:09:09.242Z,12.33
2019-06-10T12:14:33.966Z,13.25
2019-06-10T12:20:02.543Z,14.28
2019-06-10T12:25:34.715Z,11.97
2019-06-10T12:30:50.329Z,13.13
2019-06-10T12:36:15.129Z,17.10
2019-06-10T12:41:39.102Z,17.35
2019-06-10T12:47:07.582Z,14.93
2019-06-10T12:52:29.699Z,13.03
2019-06-10T12:57:54.399Z,13.25
2019-06-10T13:03:19.156Z,11.97
2019-06-10T13:08:45.085Z,13.98
2019-06-10T13:14:09.296Z,18.42
2019-06-10T13:19:35.166Z,13.78
2019-06-10T13:25:00.644Z,15.63
2019-06-10T13:30:25.523Z,14.45
2019-06-10T13:35:49.809Z,14.15
2019-06-10T13:41:13.892Z,15.15
2019-06-10T13:46:37.753Z,14.63
2019-06-10T13:52:09.132Z,12.70
2019-06-10T13:57:28.909Z,14.13
2019-06-10T14:02:52.604Z,13.68
2019-06-10T14:08:17.208Z,12.33
2019-06-10T14:13:43.134Z,12.55
2019-06-10T14:19:08.985Z,14.90
2019-06-10T14:24:33.044Z,15.35
2019-06-10T14:29:58.175Z,15.75
2019-06-10T14:35:22.864Z,14.15
2019-06-10T14:40:47.655Z,13.15
2019-06-10T14:46:14.346Z,17.82
2019-06-10T14:51:37.285Z,18.17
2019-06-10T14:57:02.648Z,17.25
2019-06-10T15:02:26.540Z,12.20
2019-06-10T15:07:52.877Z,13.20
2019-06-10T15:13:16.800Z,19.30
2019-06-10T15:18:43.192Z,13.35
2019-06-10T15:24:08.180Z,15.70
2019-06-10T15:29:32.821Z,14.83
2019-06-10T15:34:57.989Z,13.60
2019-06-10T15:40:23.169Z,19.00
2019-06-10T15:45:47.899Z,13.28
2019-06-10T15:51:15.340Z,17.32
2019-06-10T15:56:48.725Z,18.10
2019-06-10T16:02:04.695Z,16.97
2019-06-10T16:07:28.295Z,15.68
2019-06-10T16:12:52.933Z,13.35
2019-06-10T16:18:18.209Z,15.70
2019-06-10T16:23:43.016Z,11.20
2019-06-10T16:29:07.453Z,16.65
2019-06-10T16:34:32.554Z,13.48
2019-06-10T16:39:56.530Z,14.13
2019-06-10T16:45:27.670Z,13.93
2019-06-10T16:50:47.508Z,13.48
2019-06-10T16:56:12.180Z,18.50
2019-06-10T17:01:36.891Z,13.55
2019-06-10T17:07:02.138Z,19.02
2019-06-10T17:12:27.595Z,13.43
2019-06-10T17:17:52.588Z,13.83
2019-06-10T17:23:27.068Z,16.32
2019-06-10T17:28:49.242Z,18.75
2019-06-10T17:34:14.215Z,19.48
2019-06-10T17:39:38.243Z,27.82
2019-06-10T17:45:02.512Z,17.23
2019-06-10T17:50:28.055Z,16.15
2019-06-10T17:55:52.969Z,20.62
2019-06-10T18:01:18.163Z,15.93
2019-06-10T18:06:42.921Z,15.53
2019-06-10T18:12:07.534Z,14.38
2019-06-10T18:17:34.854Z,15.45
2019-06-10T18:22:57.537Z,19.73
2019-06-10T18:28:22.635Z,21.17
2019-06-10T18:33:47.570Z,16.12
2019-06-10T18:39:12.354Z,17.82
2019-06-10T18:44:37.556Z,19.42
2019-06-10T18:50:02.516Z,15.28
2019-06-10T18:55:26.200Z,18.98
2019-06-10T19:01:00.600Z,15.90
2019-06-10T19:06:15.685Z,20.02
2019-06-10T19:11:40.976Z,14.45
2019-06-10T19:17:06.599Z,15.80
2019-06-10T19:22:33.097Z,15.30
2019-06-10T19:27:56.251Z,18.32
2019-06-10T19:33:20.141Z,14.58
2019-06-10T19:38:44.880Z,16.50
2019-06-10T19:44:08.852Z,21.73
2019-06-10T19:49:34.173Z,17.98
2019-06-10T19:54:58.004Z,18.30
2019-06-10T20:00:23.491Z,19.73
2019-06-10T20:05:48.350Z,20.17
2019-06-10T20:11:14.327Z,16.55
2019-06-10T20:16:39.814Z,18.87
2019-06-10T20:22:04.539Z,27.77
2019-06-10T20:27:29.130Z,20.88
2019-06-10T20:32:56.260Z,17.95
2019-06-10T20:38:19.300Z,18.62
2019-06-10T20:43:45.620Z,22.52
2019-06-10T20:49:09.524Z,16.80
2019-06-10T20:54:34.169Z,23.02
2019-06-10T20:59:58.745Z,19.98
2019-06-10T21:05:23.534Z,18.45
2019-06-10T21:10:49.814Z,16.82
2019-06-10T21:16:13.455Z,17.87
2019-06-10T21:21:38.375Z,19.20
2019-06-10T21:27:02.796Z,18.40
2019-06-10T21:32:26.495Z,23.27
2019-06-10T21:37:51.721Z,21.52
2019-06-10T21:43:15.698Z,18.27
2019-06-10T21:48:42.943Z,23.20
2019-06-10T21:54:06.810Z,20.05
2019-06-10T21:59:32.166Z,26.40
2019-06-10T22:04:57.284Z,24.15
2019-06-10T22:10:22.939Z,24.85
2019-06-10T22:15:48.274Z,29.32
2019-06-10T22:21:14.734Z,27.82
2019-06-10T22:26:39.164Z,29.42
2019-06-10T22:32:03.931Z,35.92
2019-06-10T22:37:28.366Z,47.95
2019-06-10T22:42:55.144Z,38.40
2019-06-10T22:48:18.662Z,41.65
2019-06-10T22:53:43.535Z,47.35
2019-06-10T22:59:07.636Z,46.95
2019-06-10T23:04:33.151Z,39.80
2019-06-10T23:09:59.067Z,41.48
2019-06-10T23:15:23.969Z,45.78
2019-06-10T23:20:49.251Z,47.67
2019-06-10T23:26:13.146Z,46.85
2019-06-10T23:31:49.575Z,70.57
2019-06-10T23:37:03.157Z,81.70
2019-06-10T23:42:27.248Z,65.42
2019-06-10T23:47:52.964Z,50.63
2019-06-10T23:53:16.818Z,45.98
2019-06-10T23:58:43.178Z,36.95
